メインページ
METAR-TAF:

METAR-TAF

空港 :

チェンナイ, インド

チェンナイ国際空港

緯度: 13-00N, 経度: 080-11E, 海抜: 10m

現時点の気象観測

当レポートは38分前の23:00(UTC)に作成
西の風 6kt
気温 29°C
湿度 89%
気圧 1008 hPa
視程: 4000m
高度1800ftの雲は散在している
高度10000ftの雲は散在している
小霧雨

METAR: VOMM 232300Z 26006KT 4000 -DZ SCT018 SCT100 29/27 Q1008 NOSIG

時間: 05:08 (23:38 UTC)

予報

当レポートは6時間38分前の17:00(UTC)に作成
予報は23日の 18時(UTC)から 24日の 24時(UTC)まで有効
南西の風 5kt
視程: 5000m
高度2000ftの雲はほとんどない
高度10000ftの雲は散在している
24日の 03時(UTC)から 24日の 04時(UTC)まで徐々に
視程: 6000m
24日の 09時(UTC)から 24日の 10時(UTC)まで徐々に
の風 5kt
24日の 10時(UTC)から 24日の 15時(UTC)まで一時的に
視程: 4000m
高度1800ftの雲は散在している
高度2500ftの雲はほとんどない, 積乱雲.
高度8000ftの千切れ雲あり
24日の 15時(UTC)から 24日の 16時(UTC)まで徐々に
南西の風 5kt
視程: 5000m

TAF: VOMM 231700Z 2318/2424 23005KT 5000 BR FEW020 SCT100 BECMG 2403/2404 6000 BECMG 2409/2410 18005KT TEMPO 2410/2415 4000 -TSRA/RA SCT018 FEW025CB BKN080 BECMG 2415/2416 23005KT 5000 BR

4,000以上の空港の気象観測と天気予報(METAR報とTAF報)

利用可能な観測所は地図上に黄色い丸と赤い丸で示す。

丸の上にカーソルを重ねると観測所名を参照できる。

次にクリックすると気象観測と天気予報を参照できる。

マップの切り替え:黒色「×」印の緑ボタンをクリックして拡大、「-」印の緑ボタンをクリックして縮小、緑色の三角印をクリックして隣りの地図に切り替え


METAR-TAF: